^^
Your Local Weather - Clay, NY Station Historical Data
Daily Summary for January 26, 2017 Units:  English    Metric   Both
« Previous Day
Next Day »
Daily Weekly Monthly Yearly Custom
  High: Low: Average:
Temperature: 44.5 °F 31.5 °F 38.3 °F
Dew Point: 40.1 °F 29.9 °F 33.3 °F
Humidity: 95% 63% 83%
Wind Speed: 8.0mph 0.0mph 3.7mph
Wind Gust: 13.0mph - -
Wind- - WSW
Pressure: 29.50 in 29.31 in -
Precipitation: 0.12 in    
Historical Graphs
 
 
Tabular Data for January 26, 2017
Time Temperature Dew Point Pressure Wind Wind Speed Wind Gust Humidity Rainfall Rate (Hourly) solar
00:04 32.9 °F 31.1 °F 29.42 in Calm   1.0 mph 93% 0.00 in 0 W/m2
00:10 33.1 °F 31.3 °F 29.41 in ENE 1.0 mph 1.0 mph 93% 0.00 in 0 W/m2
00:16 33.0 °F 31.2 °F 29.41 in ENE 1.0 mph 3.0 mph 93% 0.00 in 0 W/m2
00:22 32.9 °F 31.1 °F 29.41 in ENE 1.0 mph 1.0 mph 93% 0.00 in 0 W/m2
00:28 32.9 °F 31.1 °F 29.41 in Calm   1.0 mph 93% 0.00 in 0 W/m2
00:33 32.7 °F 30.9 °F 29.40 in Calm     93% 0.00 in 0 W/m2
00:40 32.7 °F 30.9 °F 29.40 in Calm     93% 0.00 in 0 W/m2
00:46 32.7 °F 30.9 °F 29.40 in Calm     93% 0.00 in 0 W/m2
00:52 32.8 °F 31.3 °F 29.39 in Calm     94% 0.00 in 0 W/m2
00:58 32.6 °F 31.1 °F 29.39 in Calm   1.0 mph 94% 0.00 in 0 W/m2
01:04 32.4 °F 30.9 °F 29.39 in Calm     94% 0.00 in 0 W/m2
01:09 32.2 °F 30.7 °F 29.39 in Calm     94% 0.00 in 0 W/m2
01:16 32.1 °F 30.6 °F 29.39 in Calm     94% 0.00 in 0 W/m2
01:22 32.0 °F 30.5 °F 29.38 in Calm     94% 0.00 in 0 W/m2
01:28 32.0 °F 30.5 °F 29.38 in Calm     94% 0.00 in 0 W/m2
01:34 31.9 °F 30.4 °F 29.38 in Calm     94% 0.00 in 0 W/m2
01:39 31.8 °F 30.3 °F 29.38 in Calm     94% 0.00 in 0 W/m2
01:46 31.7 °F 30.2 °F 29.38 in Calm     94% 0.00 in 0 W/m2
01:52 31.5 °F 30.0 °F 29.38 in Calm     94% 0.00 in 0 W/m2
01:58 31.6 °F 30.1 °F 29.38 in Calm     94% 0.00 in 0 W/m2
02:04 31.7 °F 30.2 °F 29.38 in Calm     94% 0.00 in 0 W/m2
02:10 31.9 °F 30.4 °F 29.37 in Calm     94% 0.00 in 0 W/m2
02:15 32.0 °F 30.5 °F 29.38 in Calm     94% 0.00 in 0 W/m2
02:22 32.3 °F 30.8 °F 29.37 in Calm     94% 0.00 in 0 W/m2
02:28 33.0 °F 31.5 °F 29.37 in Calm     94% 0.00 in 0 W/m2
02:34 35.9 °F 34.3 °F 29.37 in SSE 1.0 mph 2.0 mph 94% 0.00 in 0 W/m2
02:40 38.5 °F 36.9 °F 29.37 in SSW 1.0 mph 2.0 mph 94% 0.00 in 0 W/m2
02:45 39.8 °F 38.5 °F 29.35 in SSW 1.0 mph 2.0 mph 95% 0.00 in 0 W/m2
02:52 40.8 °F 39.5 °F 29.35 in South 2.0 mph 2.0 mph 95% 0.00 in 0 W/m2
02:58 41.4 °F 39.8 °F 29.35 in SW 1.0 mph 2.0 mph 94% 0.00 in 0 W/m2
03:04 42.0 °F 40.1 °F 29.35 in SW 1.0 mph 2.0 mph 93% 0.00 in 0 W/m2
03:09 42.5 °F 40.1 °F 29.35 in South 1.0 mph 1.0 mph 91% 0.00 in 0 W/m2
03:16 42.8 °F 39.8 °F 29.35 in SSW 1.0 mph 2.0 mph 89% 0.00 in 0 W/m2
03:22 43.0 °F 39.7 °F 29.35 in SSW 2.0 mph 3.0 mph 88% 0.00 in 0 W/m2
03:28 43.2 °F 39.6 °F 29.35 in SSW 2.0 mph 3.0 mph 87% 0.00 in 0 W/m2
03:34 43.3 °F 39.7 °F 29.35 in SSW 1.0 mph 2.0 mph 87% 0.00 in 0 W/m2
03:40 43.2 °F 39.6 °F 29.35 in SW 1.0 mph 1.0 mph 87% 0.00 in 0 W/m2
03:45 43.3 °F 39.7 °F 29.35 in WSW 1.0 mph 4.0 mph 87% 0.00 in 0 W/m2
03:52 43.5 °F 39.6 °F 29.35 in West 2.0 mph 2.0 mph 86% 0.00 in 0 W/m2
03:58 43.9 °F 39.7 °F 29.35 in West 2.0 mph 2.0 mph 85% 0.00 in 0 W/m2
04:03 44.1 °F 39.9 °F 29.35 in West 1.0 mph 3.0 mph 85% 0.00 in 0 W/m2
04:10 44.3 °F 39.8 °F 29.35 in WSW 2.0 mph 2.0 mph 84% 0.00 in 0 W/m2
04:16 44.4 °F 39.9 °F 29.35 in WNW 2.0 mph 6.0 mph 84% 0.00 in 0 W/m2
04:22 44.4 °F 39.9 °F 29.35 in West 2.0 mph 3.0 mph 84% 0.00 in 0 W/m2
04:28 44.5 °F 39.7 °F 29.34 in WNW 3.0 mph 6.0 mph 83% 0.00 in 0 W/m2
04:34 44.5 °F 39.3 °F 29.34 in West 4.0 mph 5.0 mph 82% 0.00 in 0 W/m2
04:40 44.5 °F 38.7 °F 29.33 in WSW 4.0 mph 4.0 mph 80% 0.00 in 0 W/m2
04:46 44.3 °F 38.5 °F 29.34 in SW 4.0 mph 6.0 mph 80% 0.00 in 0 W/m2
04:52 44.1 °F 38.3 °F 29.33 in WSW 4.0 mph 9.0 mph 80% 0.00 in 0 W/m2
04:58 43.8 °F 38.3 °F 29.34 in WSW 3.0 mph 9.0 mph 81% 0.00 in 0 W/m2
05:04 43.6 °F 38.2 °F 29.34 in WSW 2.0 mph 3.0 mph 81% 0.00 in 0 W/m2
05:09 43.3 °F 38.2 °F 29.35 in SSE 1.0 mph 2.0 mph 82% 0.00 in 0 W/m2
05:15 43.0 °F 37.9 °F 29.35 in WSW 1.0 mph 3.0 mph 82% 0.00 in 0 W/m2
05:22 42.8 °F 37.7 °F 29.35 in SW 2.0 mph 2.0 mph 82% 0.00 in 0 W/m2
05:28 42.8 °F 37.4 °F 29.35 in SW 2.0 mph 4.0 mph 81% 0.00 in 0 W/m2
05:34 42.9 °F 37.5 °F 29.35 in West 3.0 mph 8.0 mph 81% 0.00 in 0 W/m2
05:39 42.9 °F 36.8 °F 29.35 in WSW 2.0 mph 2.0 mph 79% 0.00 in 0 W/m2
05:45 42.8 °F 36.7 °F 29.35 in West 2.0 mph 5.0 mph 79% 0.00 in 0 W/m2
05:52 42.7 °F 36.6 °F 29.35 in NW 3.0 mph 7.0 mph 79% 0.00 in 0 W/m2
05:58 42.8 °F 36.1 °F 29.35 in WSW 4.0 mph 7.0 mph 77% 0.00 in 0 W/m2
06:03 42.7 °F 36.3 °F 29.36 in South 3.0 mph 5.0 mph 78% 0.00 in 0 W/m2
06:10 42.6 °F 36.2 °F 29.36 in WSW 2.0 mph 2.0 mph 78% 0.00 in 0 W/m2
06:16 42.5 °F 35.8 °F 29.35 in West 3.0 mph 7.0 mph 77% 0.00 in 0 W/m2
06:22 42.5 °F 35.8 °F 29.36 in WSW 4.0 mph 4.0 mph 77% 0.00 in 0 W/m2
06:28 42.4 °F 35.7 °F 29.35 in WSW 3.0 mph 4.0 mph 77% 0.00 in 0 W/m2
06:34 42.4 °F 35.7 °F 29.35 in WNW 3.0 mph 8.0 mph 77% 0.00 in 0 W/m2
06:40 42.4 °F 35.4 °F 29.36 in NW 4.0 mph 4.0 mph 76% 0.00 in 0 W/m2
06:46 42.5 °F 35.1 °F 29.36 in West 6.0 mph 11.0 mph 75% 0.00 in 0 W/m2
06:52 42.4 °F 35.4 °F 29.36 in WSW 5.0 mph 13.0 mph 76% 0.00 in 0 W/m2
06:58 42.3 °F 35.3 °F 29.36 in SSW 5.0 mph 13.0 mph 76% 0.00 in 0 W/m2
07:04 42.2 °F 35.2 °F 29.36 in West 5.0 mph 8.0 mph 76% 0.00 in 0 W/m2
07:10 42.2 °F 34.8 °F 29.36 in West 5.0 mph 5.0 mph 75% 0.00 in 0 W/m2
07:15 42.1 °F 34.7 °F 29.35 in West 5.0 mph 5.0 mph 75% 0.00 in 0 W/m2
07:22 41.9 °F 34.9 °F 29.35 in SW 3.0 mph 3.0 mph 76% 0.00 in 0 W/m2
07:28 41.7 °F 34.7 °F 29.35 in WSW 2.0 mph 4.0 mph 76% 0.00 in 0 W/m2
07:34 41.5 °F 34.5 °F 29.36 in SW 3.0 mph 5.0 mph 76% 0.00 in 0 W/m2
07:40 41.4 °F 34.4 °F 29.35 in West 2.0 mph 4.0 mph 76% 0.00 in 0 W/m2
07:46 41.5 °F 34.5 °F 29.36 in WSW 3.0 mph 5.0 mph 76% 0.00 in 5 W/m2
07:52 41.4 °F 34.1 °F 29.35 in WSW 4.0 mph 6.0 mph 75% 0.00 in 7 W/m2
07:58 41.6 °F 34.3 °F 29.35 in WSW 4.0 mph 6.0 mph 75% 0.00 in 9 W/m2
08:04 41.6 °F 34.3 °F 29.35 in West 5.0 mph 6.0 mph 75% 0.00 in 30 W/m2
08:10 41.7 °F 34.0 °F 29.35 in WSW 5.0 mph 5.0 mph 74% 0.00 in 58 W/m2
08:15 41.6 °F 33.9 °F 29.35 in West 4.0 mph 5.0 mph 74% 0.00 in 67 W/m2
08:22 41.6 °F 33.9 °F 29.35 in West 4.0 mph 4.0 mph 74% 0.00 in 63 W/m2
08:28 41.6 °F 33.6 °F 29.35 in West 5.0 mph 13.0 mph 73% 0.00 in 79 W/m2
08:34 41.7 °F 33.7 °F 29.35 in West 6.0 mph 6.0 mph 73% 0.00 in 84 W/m2
08:40 41.7 °F 33.7 °F 29.35 in NW 5.0 mph 5.0 mph 73% 0.00 in 88 W/m2
08:44 41.7 °F 33.7 °F 29.35 in West 5.0 mph 5.0 mph 73% 0.00 in 81 W/m2
08:49 41.7 °F 33.7 °F 29.35 in SW 4.0 mph 9.0 mph 73% 0.00 in 93 W/m2
08:56 41.8 °F 33.4 °F 29.35 in West 6.0 mph 9.0 mph 72% 0.00 in 90 W/m2
09:02 41.8 °F 33.1 °F 29.35 in West 6.0 mph 6.0 mph 71% 0.00 in 97 W/m2
09:08 41.8 °F 33.1 °F 29.34 in West 5.0 mph 11.0 mph 71% 0.00 in 84 W/m2
09:14 41.9 °F 33.2 °F 29.34 in WSW 5.0 mph 6.0 mph 71% 0.00 in 149 W/m2
09:20 42.2 °F 33.5 °F 29.35 in SW 4.0 mph 8.0 mph 71% 0.00 in 134 W/m2
09:26 42.2 °F 32.4 °F 29.34 in West 5.0 mph 11.0 mph 68% 0.00 in 107 W/m2
09:32 43.1 °F 33.6 °F 29.34 in WSW 5.0 mph 6.0 mph 69% 0.00 in 306 W/m2
09:38 43.4 °F 32.8 °F 29.34 in West 5.0 mph 10.0 mph 66% 0.00 in 334 W/m2
09:44 43.6 °F 33.0 °F 29.33 in WNW 6.0 mph 7.0 mph 66% 0.00 in 348 W/m2
09:50 43.6 °F 33.0 °F 29.33 in SSW 6.0 mph 7.0 mph 66% 0.00 in 373 W/m2
09:56 43.5 °F 32.5 °F 29.33 in WNW 6.0 mph 11.0 mph 65% 0.00 in 383 W/m2
10:02 43.0 °F 31.6 °F 29.34 in WNW 7.0 mph 8.0 mph 64% 0.00 in 155 W/m2
10:08 42.7 °F 31.7 °F 29.34 in WNW 7.0 mph 8.0 mph 65% 0.00 in 183 W/m2
10:13 42.6 °F 31.3 °F 29.34 in WSW 7.0 mph 7.0 mph 64% 0.00 in 172 W/m2
10:19 42.3 °F 31.0 °F 29.35 in WSW 7.0 mph 7.0 mph 64% 0.00 in 171 W/m2
10:25 42.2 °F 30.9 °F 29.34 in WNW 7.0 mph 12.0 mph 64% 0.00 in 135 W/m2
10:32 42.0 °F 30.7 °F 29.35 in WNW 7.0 mph 7.0 mph 64% 0.00 in 109 W/m2
10:38 42.0 °F 30.7 °F 29.34 in West 6.0 mph 9.0 mph 64% 0.00 in 107 W/m2
10:44 41.8 °F 30.9 °F 29.34 in WNW 7.0 mph 10.0 mph 65% 0.00 in 118 W/m2
10:49 41.8 °F 30.9 °F 29.35 in WNW 6.0 mph 8.0 mph 65% 0.00 in 120 W/m2
10:55 41.8 °F 30.5 °F 29.34 in WSW 6.0 mph 12.0 mph 64% 0.00 in 76 W/m2
11:02 41.6 °F 30.3 °F 29.34 in South 7.0 mph 8.0 mph 64% 0.00 in 146 W/m2
11:08 41.7 °F 30.4 °F 29.33 in NW 7.0 mph 9.0 mph 64% 0.00 in 155 W/m2
11:14 41.6 °F 29.9 °F 29.33 in SW 7.0 mph 10.0 mph 63% 0.00 in 146 W/m2
11:20 41.7 °F 30.4 °F 29.33 in SW 8.0 mph 8.0 mph 64% 0.00 in 132 W/m2
11:25 41.6 °F 30.3 °F 29.33 in WSW 6.0 mph 8.0 mph 64% 0.00 in 179 W/m2
11:32 41.6 °F 30.3 °F 29.32 in West 7.0 mph 7.0 mph 64% 0.00 in 197 W/m2
11:38 41.7 °F 30.0 °F 29.32 in West 7.0 mph 9.0 mph 63% 0.00 in 171 W/m2
11:44 41.7 °F 30.0 °F 29.32 in WSW 6.0 mph 12.0 mph 63% 0.00 in 155 W/m2
11:49 41.6 °F 30.3 °F 29.32 in West 6.0 mph 6.0 mph 64% 0.00 in 202 W/m2
11:55 41.7 °F 30.4 °F 29.32 in West 6.0 mph 11.0 mph 64% 0.00 in 172 W/m2
12:02 41.5 °F 30.6 °F 29.32 in WSW 7.0 mph 11.0 mph 65% 0.00 in 165 W/m2
12:08 41.2 °F 31.1 °F 29.32 in West 5.0 mph 11.0 mph 67% 0.00 in 171 W/m2
12:13 41.1 °F 31.7 °F 29.32 in SW 4.0 mph 13.0 mph 69% 0.00 in 149 W/m2
12:20 40.8 °F 31.8 °F 29.32 in WSW 5.0 mph 13.0 mph 70% 0.00 in 195 W/m2
12:26 40.1 °F 32.1 °F 29.32 in West 7.0 mph 13.0 mph 73% 0.00 in 151 W/m2
12:32 39.5 °F 32.2 °F 29.32 in West 7.0 mph 11.0 mph 75% 0.00 in 93 W/m2
12:38 38.9 °F 32.3 °F 29.31 in WNW 7.0 mph 11.0 mph 77% 0.00 in 84 W/m2
12:43 38.8 °F 32.5 °F 29.31 in West 5.0 mph 10.0 mph 78% 0.00 in 86 W/m2
12:49 38.8 °F 32.2 °F 29.31 in West 5.0 mph 7.0 mph 77% 0.00 in 93 W/m2
12:56 38.8 °F 32.2 °F 29.31 in West 5.0 mph 7.0 mph 77% 0.00 in 95 W/m2
13:02 38.7 °F 32.4 °F 29.31 in WSW 5.0 mph 7.0 mph 78% 0.00 in 84 W/m2
13:08 38.6 °F 32.3 °F 29.31 in West 5.0 mph 7.0 mph 78% 0.00 in 63 W/m2
13:14 38.4 °F 32.5 °F 29.31 in NW 6.0 mph 6.0 mph 79% 0.00 in 79 W/m2
13:19 38.4 °F 32.8 °F 29.31 in West 5.0 mph 5.0 mph 80% 0.00 in 95 W/m2
13:25 38.2 °F 32.9 °F 29.31 in West 5.0 mph 6.0 mph 81% 0.00 in 91 W/m2
13:32 38.2 °F 33.2 °F 29.31 in SSW 5.0 mph 7.0 mph 82% 0.00 in 77 W/m2
13:38 38.0 °F 33.3 °F 29.31 in WNW 4.0 mph 7.0 mph 83% 0.00 in 98 W/m2
13:44 37.8 °F 33.1 °F 29.31 in West 5.0 mph 13.0 mph 83% 0.00 in 93 W/m2
13:50 37.8 °F 33.4 °F 29.31 in WNW 5.0 mph 7.0 mph 84% 0.00 in 91 W/m2
13:55 37.7 °F 33.3 °F 29.31 in West 5.0 mph 7.0 mph 84% 0.00 in 107 W/m2
14:02 37.8 °F 33.4 °F 29.32 in West 6.0 mph 6.0 mph 84% 0.00 in 139 W/m2
14:08 38.0 °F 33.9 °F 29.31 in WSW 4.0 mph 6.0 mph 85% 0.00 in 135 W/m2
14:14 38.2 °F 34.1 °F 29.31 in WSW 4.0 mph 5.0 mph 85% 0.00 in 156 W/m2
14:20 38.5 °F 33.8 °F 29.32 in West 4.0 mph 4.0 mph 83% 0.00 in 139 W/m2
14:26 38.8 °F 33.8 °F 29.32 in SW 5.0 mph 11.0 mph 82% 0.00 in 134 W/m2
14:32 39.0 °F 33.7 °F 29.32 in West 6.0 mph 9.0 mph 81% 0.00 in 127 W/m2
14:38 39.1 °F 33.5 °F 29.32 in West 6.0 mph 11.0 mph 80% 0.00 in 69 W/m2
14:44 38.8 °F 33.5 °F 29.32 in West 6.0 mph 7.0 mph 81% 0.00 in 49 W/m2
14:49 38.4 °F 33.4 °F 29.32 in WNW 5.0 mph 5.0 mph 82% 0.00 in 47 W/m2
14:55 38.2 °F 33.2 °F 29.32 in SW 4.0 mph 5.0 mph 82% 0.00 in 37 W/m2
15:02 38.2 °F 33.5 °F 29.32 in West 3.0 mph 4.0 mph 83% 0.00 in 30 W/m2
15:08 38.2 °F 33.2 °F 29.33 in WSW 3.0 mph 6.0 mph 82% 0.00 in 44 W/m2
15:14 38.4 °F 33.1 °F 29.33 in WNW 4.0 mph 7.0 mph 81% 0.00 in 37 W/m2
15:20 38.4 °F 33.4 °F 29.33 in WSW 4.0 mph 4.0 mph 82% 0.00 in 42 W/m2
15:26 38.4 °F 33.1 °F 29.33 in WNW 5.0 mph 5.0 mph 81% 0.00 in 44 W/m2
15:32 38.3 °F 33.0 °F 29.33 in WSW 5.0 mph 5.0 mph 81% 0.00 in 51 W/m2
15:38 38.2 °F 32.9 °F 29.33 in WSW 4.0 mph 7.0 mph 81% 0.00 in 47 W/m2
15:43 38.1 °F 32.8 °F 29.33 in WSW 5.0 mph 9.0 mph 81% 0.00 in 47 W/m2
15:50 38.0 °F 33.3 °F 29.33 in West 4.0 mph 4.0 mph 83% 0.00 in 44 W/m2
15:56 37.9 °F 33.2 °F 29.33 in WNW 3.0 mph 4.0 mph 83% 0.00 in 28 W/m2
16:02 37.7 °F 33.3 °F 29.34 in SW 3.0 mph 4.0 mph 84% 0.00 in 25 W/m2
16:10 37.4 °F 33.3 °F 29.34 in West 5.0 mph 5.0 mph 85% 0.00 in 26 W/m2
16:15 37.2 °F 33.1 °F 29.35 in SW 5.0 mph 8.0 mph 85% 0.00 in 23 W/m2
16:22 37.0 °F 33.2 °F 29.35 in WNW 4.0 mph 6.0 mph 86% 0.00 in 19 W/m2
16:33 36.0 °F 32.5 °F 29.36 in NW 4.0 mph 5.0 mph 87% 0.19 in 5 W/m2
16:40 35.2 °F 32.0 °F 29.36 in WNW 5.0 mph 6.0 mph 88% 0.08 in 5 W/m2
16:46 35.0 °F 32.1 °F 29.37 in WSW 3.0 mph 6.0 mph 89% 0.05 in 5 W/m2
16:52 34.9 °F 32.3 °F 29.38 in WNW 3.0 mph 3.0 mph 90% 0.05 in 0 W/m2
16:58 34.6 °F 32.0 °F 29.38 in WNW 4.0 mph 4.0 mph 90% 0.04 in 0 W/m2
17:03 34.5 °F 31.9 °F 29.38 in WNW 4.0 mph 8.0 mph 90% 0.00 in 0 W/m2
17:10 34.4 °F 31.8 °F 29.39 in WNW 4.0 mph 4.0 mph 90% 0.00 in 0 W/m2
17:16 34.3 °F 31.9 °F 29.39 in WNW 3.0 mph 4.0 mph 91% 0.00 in 0 W/m2
17:23 34.2 °F 31.8 °F 29.40 in NW 3.0 mph 4.0 mph 91% 0.00 in 0 W/m2
17:28 34.1 °F 31.7 °F 29.40 in WSW 3.0 mph 4.0 mph 91% 0.00 in 0 W/m2
17:33 34.1 °F 31.7 °F 29.40 in WNW 3.0 mph 3.0 mph 91% 0.00 in 0 W/m2
17:40 34.2 °F 31.8 °F 29.40 in SW 3.0 mph 3.0 mph 91% 0.00 in 0 W/m2
17:46 34.2 °F 31.8 °F 29.41 in WSW 3.0 mph 5.0 mph 91% 0.00 in 0 W/m2
17:52 34.3 °F 31.9 °F 29.41 in WSW 3.0 mph 3.0 mph 91% 0.00 in 0 W/m2
17:58 34.3 °F 31.9 °F 29.41 in WNW 3.0 mph 4.0 mph 91% 0.00 in 0 W/m2
18:04 34.4 °F 32.0 °F 29.41 in WNW 3.0 mph 7.0 mph 91% 0.00 in 0 W/m2
18:09 34.4 °F 32.0 °F 29.41 in West 3.0 mph 3.0 mph 91% 0.00 in 0 W/m2
18:16 34.5 °F 32.1 °F 29.42 in West 3.0 mph 3.0 mph 91% 0.00 in 0 W/m2
18:22 34.4 °F 32.0 °F 29.42 in WSW 2.0 mph 3.0 mph 91% 0.00 in 0 W/m2
18:28 34.3 °F 31.9 °F 29.42 in WSW 2.0 mph 3.0 mph 91% 0.00 in 0 W/m2
18:34 34.4 °F 32.0 °F 29.42 in West 3.0 mph 6.0 mph 91% 0.00 in 0 W/m2
18:39 34.5 °F 32.1 °F 29.43 in West 2.0 mph 3.0 mph 91% 0.00 in 0 W/m2
18:52 34.7 °F 32.6 °F 29.43 in WSW 2.0 mph 3.0 mph 92% 0.00 in 0 W/m2
18:58 34.8 °F 32.4 °F 29.43 in WNW 2.0 mph 3.0 mph 91% 0.00 in 0 W/m2
19:04 34.9 °F 32.5 °F 29.44 in WNW 3.0 mph 5.0 mph 91% 0.00 in 0 W/m2
19:06 35.0 °F 32.6 °F 29.44 in West 3.0 mph 5.0 mph 91% 0.00 in 0 W/m2
19:15 35.3 °F 32.9 °F 29.44 in West 3.0 mph 4.0 mph 91% 0.00 in 0 W/m2
19:22 35.4 °F 33.0 °F 29.44 in WNW 4.0 mph 4.0 mph 91% 0.00 in 0 W/m2
19:28 35.5 °F 32.9 °F 29.44 in West 4.0 mph 6.0 mph 90% 0.00 in 0 W/m2
19:34 35.6 °F 33.0 °F 29.45 in NW 5.0 mph 5.0 mph 90% 0.00 in 0 W/m2
19:40 35.7 °F 32.8 °F 29.45 in West 5.0 mph 5.0 mph 89% 0.00 in 0 W/m2
19:42 35.7 °F 32.8 °F 29.45 in West 4.0 mph 5.0 mph 89% 0.00 in 0 W/m2
19:48 35.7 °F 32.8 °F 29.45 in West 5.0 mph 8.0 mph 89% 0.00 in 0 W/m2
19:53 35.6 °F 32.7 °F 29.45 in West 5.0 mph 6.0 mph 89% 0.00 in 0 W/m2
20:00 35.5 °F 32.6 °F 29.46 in WNW 5.0 mph 6.0 mph 89% 0.00 in 0 W/m2
20:02 35.5 °F 32.6 °F 29.46 in West 5.0 mph 6.0 mph 89% 0.00 in 0 W/m2
20:08 35.5 °F 32.6 °F 29.46 in West 4.0 mph 6.0 mph 89% 0.00 in 0 W/m2
20:14 35.4 °F 32.5 °F 29.46 in West 4.0 mph 7.0 mph 89% 0.00 in 0 W/m2
20:20 35.3 °F 32.4 °F 29.47 in WNW 4.0 mph 4.0 mph 89% 0.00 in 0 W/m2
20:26 35.2 °F 32.3 °F 29.47 in West 5.0 mph 6.0 mph 89% 0.00 in 0 W/m2
20:32 35.0 °F 32.1 °F 29.47 in West 5.0 mph 5.0 mph 89% 0.00 in 0 W/m2
20:38 35.0 °F 32.4 °F 29.47 in WNW 4.0 mph 6.0 mph 90% 0.00 in 0 W/m2
20:43 34.8 °F 32.2 °F 29.47 in West 3.0 mph 5.0 mph 90% 0.04 in 0 W/m2
20:50 34.6 °F 32.0 °F 29.47 in WNW 3.0 mph 4.0 mph 90% 0.04 in 0 W/m2
20:55 34.4 °F 31.8 °F 29.47 in WSW 3.0 mph 5.0 mph 90% 0.04 in 0 W/m2
21:02 34.3 °F 31.9 °F 29.47 in West 4.0 mph 5.0 mph 91% 0.00 in 0 W/m2
21:08 34.3 °F 31.9 °F 29.48 in West 4.0 mph 5.0 mph 91% 0.00 in 0 W/m2
21:14 34.3 °F 31.9 °F 29.48 in West 4.0 mph 5.0 mph 91% 0.00 in 0 W/m2
21:22 34.4 °F 32.0 °F 29.48 in WSW 3.0 mph 9.0 mph 91% 0.00 in 0 W/m2
21:28 34.5 °F 31.9 °F 29.48 in West 4.0 mph 9.0 mph 90% 0.00 in 0 W/m2
21:34 34.6 °F 32.0 °F 29.48 in WSW 3.0 mph 5.0 mph 90% 0.00 in 0 W/m2
21:40 34.6 °F 31.7 °F 29.48 in West 3.0 mph 5.0 mph 89% 0.00 in 0 W/m2
21:45 34.7 °F 31.8 °F 29.49 in SW 3.0 mph 5.0 mph 89% 0.00 in 0 W/m2
21:52 34.6 °F 31.7 °F 29.48 in WSW 3.0 mph 7.0 mph 89% 0.00 in 0 W/m2
21:58 34.7 °F 31.8 °F 29.48 in West 3.0 mph 7.0 mph 89% 0.00 in 0 W/m2
22:03 34.7 °F 31.8 °F 29.48 in WSW 4.0 mph 4.0 mph 89% 0.00 in 0 W/m2
22:10 34.8 °F 31.6 °F 29.48 in West 4.0 mph 4.0 mph 88% 0.00 in 0 W/m2
22:18 34.9 °F 31.7 °F 29.48 in SW 4.0 mph 9.0 mph 88% 0.00 in 0 W/m2
22:24 35.1 °F 31.9 °F 29.48 in West 4.0 mph 8.0 mph 88% 0.00 in 0 W/m2
22:31 35.1 °F 31.9 °F 29.48 in West 4.0 mph 4.0 mph 88% 0.00 in 0 W/m2
22:36 35.2 °F 31.7 °F 29.49 in WNW 4.0 mph 5.0 mph 87% 0.00 in 0 W/m2
22:38 35.3 °F 31.8 °F 29.48 in West 4.0 mph 5.0 mph 87% 0.00 in 0 W/m2
22:43 35.4 °F 31.6 °F 29.49 in West 5.0 mph 7.0 mph 86% 0.00 in 0 W/m2
22:50 35.5 °F 31.7 °F 29.49 in West 5.0 mph 5.0 mph 86% 0.00 in 0 W/m2
22:56 35.6 °F 31.5 °F 29.49 in WSW 4.0 mph 5.0 mph 85% 0.00 in 0 W/m2
23:02 35.7 °F 31.3 °F 29.49 in West 5.0 mph 11.0 mph 84% 0.00 in 0 W/m2
23:08 35.7 °F 31.3 °F 29.49 in West 6.0 mph 11.0 mph 84% 0.00 in 0 W/m2
23:15 35.7 °F 31.3 °F 29.49 in West 4.0 mph 10.0 mph 84% 0.00 in 0 W/m2
23:22 35.8 °F 31.1 °F 29.49 in WNW 6.0 mph 8.0 mph 83% 0.00 in 0 W/m2
23:28 35.8 °F 31.1 °F 29.49 in West 6.0 mph 10.0 mph 83% 0.00 in 0 W/m2
23:34 35.7 °F 31.0 °F 29.49 in West 4.0 mph 6.0 mph 83% 0.00 in 0 W/m2
23:40 35.9 °F 30.9 °F 29.49 in WNW 4.0 mph 4.0 mph 82% 0.00 in 0 W/m2
23:45 35.9 °F 30.9 °F 29.50 in West 4.0 mph 7.0 mph 82% 0.00 in 0 W/m2
23:52 36.1 °F 30.8 °F 29.49 in NW 5.0 mph 5.0 mph 81% 0.00 in 0 W/m2
Country Meadow, Clay, NY, USA
Compliments of Weather Underground - 2 mb